Time;durP1;ratioP1;P1;durP2;ratioP2;P2;SDS_P1;SDS_P2;PMS_P1;PMS_P2;Temp;Humidity;BMP_temperature;BMP_pressure;BME280_temperature;BME280_humidity;BME280_pressure;Samples;Min_cycle;Max_cycle;Signal;HPM_P1;HPM_P2
2021/11/11 00:01:51;;;;;;;27.27;17.23;;;;;;;;;;5025608;28;20063;-52
2021/11/11 00:04:21;;;;;;;33.67;21.02;;;;;;;;;;5025500;28;20087;-53
2021/11/11 00:06:48;;;;;;;45.53;24.08;;;;;;;;;;5025621;28;20365;-53
2021/11/11 00:09:15;;;;;;;50.35;29.23;;;;;;;;;;5025280;28;20037;-53
2021/11/11 00:11:42;;;;;;;22.95;15.57;;;;;;;;;;5025763;28;20025;-54
2021/11/11 00:14:08;;;;;;;33.40;20.40;;;;;;;;;;5025501;28;20017;-54
2021/11/11 00:16:35;;;;;;;33.05;19.20;;;;;;;;;;5045987;28;20056;-53
2021/11/11 00:19:02;;;;;;;31.08;19.42;;;;;;;;;;5052659;28;20025;-53
2021/11/11 00:21:30;;;;;;;29.50;18.02;;;;;;;;;;5052475;28;20120;-54
2021/11/11 00:23:56;;;;;;;26.95;16.48;;;;;;;;;;5052485;28;20112;-54
2021/11/11 00:26:23;;;;;;;30.70;18.13;;;;;;;;;;5052510;28;20603;-52
2021/11/11 00:28:49;;;;;;;27.10;17.05;;;;;;;;;;5052348;28;20037;-53
2021/11/11 00:31:16;;;;;;;32.25;20.40;;;;;;;;;;5052507;28;20017;-53
2021/11/11 00:33:42;;;;;;;29.23;17.98;;;;;;;;;;5052519;28;20032;-54
2021/11/11 00:36:08;;;;;;;31.00;18.88;;;;;;;;;;5053416;28;20151;-52
2021/11/11 00:38:34;;;;;;;34.55;22.05;;;;;;;;;;5056203;28;20108;-52
2021/11/11 00:41:00;;;;;;;33.92;19.45;;;;;;;;;;5054733;28;20112;-53
2021/11/11 00:43:27;;;;;;;31.95;19.48;;;;;;;;;;5056116;28;20017;-54
2021/11/11 00:45:53;;;;;;;32.22;20.65;;;;;;;;;;5056167;28;20101;-54
2021/11/11 00:48:19;;;;;;;32.92;19.25;;;;;;;;;;5054868;28;20124;-55
2021/11/11 00:50:45;;;;;;;27.88;16.70;;;;;;;;;;5055530;28;20056;-55
2021/11/11 00:53:14;;;;;;;28.80;18.35;;;;;;;;;;5055746;28;20544;-54
2021/11/11 00:55:40;;;;;;;22.50;14.68;;;;;;;;;;5055813;28;20104;-53
2021/11/11 00:58:06;;;;;;;28.38;17.55;;;;;;;;;;5055933;28;20044;-53
2021/11/11 01:00:36;;;;;;;31.70;19.02;;;;;;;;;;5055854;28;20024;-52
2021/11/11 01:03:07;;;;;;;23.85;16.38;;;;;;;;;;5055688;28;20107;-55
2021/11/11 01:05:34;;;;;;;27.10;17.83;;;;;;;;;;5055603;28;20028;-54
2021/11/11 01:08:00;;;;;;;27.40;17.85;;;;;;;;;;5055478;28;20052;-52
2021/11/11 01:10:27;;;;;;;25.67;16.02;;;;;;;;;;5055549;28;20038;-53
2021/11/11 01:12:54;;;;;;;27.50;16.77;;;;;;;;;;5055534;28;20509;-53
2021/11/11 01:15:22;;;;;;;27.35;16.00;;;;;;;;;;5055697;28;20104;-53
2021/11/11 01:17:49;;;;;;;24.58;15.40;;;;;;;;;;5055406;28;20017;-52
2021/11/11 01:20:16;;;;;;;31.67;18.50;;;;;;;;;;5055186;28;20040;-54
2021/11/11 01:22:45;;;;;;;26.77;16.45;;;;;;;;;;5055384;28;20044;-55
2021/11/11 01:25:12;;;;;;;30.35;19.15;;;;;;;;;;5055346;28;20513;-54
2021/11/11 01:27:42;;;;;;;25.25;16.10;;;;;;;;;;5055301;28;20017;-55
2021/11/11 01:30:09;;;;;;;26.02;16.55;;;;;;;;;;5055179;28;20036;-55
2021/11/11 01:32:35;;;;;;;30.17;20.13;;;;;;;;;;5055421;28;20465;-55
2021/11/11 01:35:02;;;;;;;23.38;15.55;;;;;;;;;;5055132;28;20036;-55
2021/11/11 01:37:29;;;;;;;27.80;16.70;;;;;;;;;;5055232;28;20100;-53
2021/11/11 01:39:55;;;;;;;27.05;17.02;;;;;;;;;;5055290;28;20108;-53
2021/11/11 01:42:22;;;;;;;35.75;20.00;;;;;;;;;;5055187;28;20103;-54
2021/11/11 01:44:54;;;;;;;25.65;16.38;;;;;;;;;;5055416;28;20100;-53
2021/11/11 01:47:21;;;;;;;35.33;20.45;;;;;;;;;;5054196;28;20155;-52
2021/11/11 01:49:47;;;;;;;31.30;20.60;;;;;;;;;;5054413;28;20098;-53
2021/11/11 01:52:17;;;;;;;28.08;17.45;;;;;;;;;;5054951;28;20108;-55
2021/11/11 01:54:44;;;;;;;28.85;18.63;;;;;;;;;;5054765;28;20024;-55
2021/11/11 01:57:10;;;;;;;23.13;15.30;;;;;;;;;;5054913;28;20032;-55
2021/11/11 01:59:36;;;;;;;26.63;18.05;;;;;;;;;;5054747;28;20536;-55
2021/11/11 02:02:03;;;;;;;29.75;19.63;;;;;;;;;;5054696;28;20024;-54
2021/11/11 02:04:29;;;;;;;31.75;21.58;;;;;;;;;;5054510;28;20025;-54
2021/11/11 02:06:55;;;;;;;37.38;21.70;;;;;;;;;;5054577;28;20029;-53
2021/11/11 02:09:21;;;;;;;34.38;20.58;;;;;;;;;;5054540;28;20041;-52
2021/11/11 02:11:48;;;;;;;31.85;21.08;;;;;;;;;;5054540;28;20017;-52
2021/11/11 02:14:15;;;;;;;24.83;16.13;;;;;;;;;;5054782;28;20029;-52
2021/11/11 02:16:41;;;;;;;24.17;17.00;;;;;;;;;;5054293;28;20070;-52
2021/11/11 02:19:08;;;;;;;25.75;16.48;;;;;;;;;;5054192;28;20025;-52
2021/11/11 02:21:37;;;;;;;29.23;18.08;;;;;;;;;;5054181;28;20032;-52
2021/11/11 02:24:03;;;;;;;24.77;16.73;;;;;;;;;;5054385;28;20029;-55
2021/11/11 02:26:30;;;;;;;25.60;17.08;;;;;;;;;;5054129;28;20052;-52
2021/11/11 02:28:57;;;;;;;29.27;18.67;;;;;;;;;;5053985;28;20091;-52
2021/11/11 02:31:24;;;;;;;30.20;18.25;;;;;;;;;;5054273;28;20370;-52
2021/11/11 02:33:57;;;;;;;30.77;19.25;;;;;;;;;;5052701;28;20021;-52
2021/11/11 02:36:25;;;;;;;28.77;18.05;;;;;;;;;;5054056;28;20071;-52
2021/11/11 02:38:52;;;;;;;26.52;17.40;;;;;;;;;;5053988;28;20104;-52
2021/11/11 02:41:18;;;;;;;29.23;17.55;;;;;;;;;;5053863;28;20095;-52
2021/11/11 02:43:47;;;;;;;29.60;17.10;;;;;;;;;;5054137;28;20434;-51
2021/11/11 02:46:13;;;;;;;34.03;18.30;;;;;;;;;;5053739;28;20108;-52
2021/11/11 02:48:40;;;;;;;33.25;17.67;;;;;;;;;;5053920;28;20116;-53
2021/11/11 02:51:08;;;;;;;31.60;17.73;;;;;;;;;;5053625;28;20045;-53
2021/11/11 02:53:34;;;;;;;36.40;18.83;;;;;;;;;;5053739;28;20114;-53
2021/11/11 02:56:01;;;;;;;39.88;19.63;;;;;;;;;;5053781;28;20025;-52
2021/11/11 02:58:27;;;;;;;33.80;17.85;;;;;;;;;;5053455;28;20392;-52
2021/11/11 03:01:03;;;;;;;35.83;19.77;;;;;;;;;;5053662;28;20017;-53
2021/11/11 03:03:29;;;;;;;27.77;17.35;;;;;;;;;;5053524;28;20366;-52
2021/11/11 03:05:55;;;;;;;28.58;17.23;;;;;;;;;;5053520;28;20032;-55
2021/11/11 03:08:22;;;;;;;35.38;18.15;;;;;;;;;;5053728;28;20373;-55
2021/11/11 03:10:51;;;;;;;29.75;18.15;;;;;;;;;;5053325;28;20036;-54
2021/11/11 03:13:18;;;;;;;32.90;17.92;;;;;;;;;;5053445;28;20104;-54
2021/11/11 03:15:44;;;;;;;32.60;17.48;;;;;;;;;;5053440;28;20481;-53
2021/11/11 03:18:11;;;;;;;41.72;19.08;;;;;;;;;;5053522;28;20033;-54
2021/11/11 03:20:37;;;;;;;34.83;17.33;;;;;;;;;;5053179;28;20043;-51
2021/11/11 03:23:04;;;;;;;40.28;20.30;;;;;;;;;;5052226;28;20381;-53
2021/11/11 03:25:32;;;;;;;32.28;17.30;;;;;;;;;;5053109;28;20100;-52
2021/11/11 03:27:58;;;;;;;33.85;17.38;;;;;;;;;;5051987;28;20029;-52
2021/11/11 03:30:25;;;;;;;33.58;17.98;;;;;;;;;;5053027;28;20025;-51
2021/11/11 03:32:52;;;;;;;30.33;16.98;;;;;;;;;;5053148;28;20021;-51
2021/11/11 03:35:19;;;;;;;28.52;16.92;;;;;;;;;;5053045;28;20028;-52
2021/11/11 03:37:46;;;;;;;28.20;17.38;;;;;;;;;;5053651;28;20429;-52
2021/11/11 03:40:17;;;;;;;27.95;16.85;;;;;;;;;;5052971;28;20025;-52
2021/11/11 03:42:46;;;;;;;27.65;16.75;;;;;;;;;;5053184;28;20021;-54
2021/11/11 03:45:12;;;;;;;27.13;15.93;;;;;;;;;;5052904;28;20472;-51
2021/11/11 03:47:39;;;;;;;24.95;16.88;;;;;;;;;;5052927;28;20029;-52
2021/11/11 03:50:06;;;;;;;26.20;16.08;;;;;;;;;;5052782;28;20041;-52
2021/11/11 03:52:33;;;;;;;25.40;15.95;;;;;;;;;;5053362;28;20025;-52
2021/11/11 03:55:01;;;;;;;24.60;15.77;;;;;;;;;;5052950;28;20511;-53
2021/11/11 03:57:28;;;;;;;25.23;15.45;;;;;;;;;;5053141;28;20025;-52
2021/11/11 03:59:56;;;;;;;23.88;15.15;;;;;;;;;;5052807;28;20029;-53
2021/11/11 04:02:23;;;;;;;23.67;15.27;;;;;;;;;;5052938;28;20469;-52
2021/11/11 04:04:50;;;;;;;26.17;15.45;;;;;;;;;;5053194;28;20063;-52
2021/11/11 04:07:16;;;;;;;22.60;14.77;;;;;;;;;;5052909;28;20021;-52
2021/11/11 04:09:42;;;;;;;26.27;15.27;;;;;;;;;;5052819;28;20037;-52
2021/11/11 04:12:09;;;;;;;23.30;14.13;;;;;;;;;;5055702;28;20096;-53
2021/11/11 04:14:35;;;;;;;24.00;14.27;;;;;;;;;;5056623;28;20469;-51
2021/11/11 04:17:04;;;;;;;25.15;14.82;;;;;;;;;;5056540;28;20031;-53
2021/11/11 04:19:32;;;;;;;24.00;14.40;;;;;;;;;;5056432;28;20112;-54
2021/11/11 04:21:58;;;;;;;34.25;19.88;;;;;;;;;;5056510;28;20033;-52
2021/11/11 04:24:27;;;;;;;25.10;14.40;;;;;;;;;;5056449;28;20031;-53
2021/11/11 04:27:24;;;;;;;23.40;14.77;;;;;;;;;;5056331;28;20018;-53
2021/11/11 04:29:51;;;;;;;37.70;19.38;;;;;;;;;;5055938;28;20052;-50
2021/11/11 04:32:18;;;;;;;24.58;15.98;;;;;;;;;;5056328;28;20025;-55
2021/11/11 04:34:47;;;;;;;22.48;14.57;;;;;;;;;;5056320;28;20049;-49
2021/11/11 05:05:48;;;;;;;33.50;16.48;;;;;;;;;;5055584;28;20118;-51
2021/11/11 05:08:14;;;;;;;38.97;18.30;;;;;;;;;;5055746;28;20028;-52
2021/11/11 05:10:41;;;;;;;26.38;15.25;;;;;;;;;;5055425;28;20040;-51
2021/11/11 05:13:07;;;;;;;41.08;21.13;;;;;;;;;;5055621;28;20303;-51
2021/11/11 05:15:36;;;;;;;37.08;16.98;;;;;;;;;;5055435;28;20424;-52
2021/11/11 05:18:02;;;;;;;55.33;24.52;;;;;;;;;;5055383;28;20029;-52
2021/11/11 05:20:28;;;;;;;42.92;18.60;;;;;;;;;;5055292;28;20116;-54
2021/11/11 05:22:54;;;;;;;36.22;16.42;;;;;;;;;;5055474;28;20029;-52
2021/11/11 05:25:21;;;;;;;45.40;19.60;;;;;;;;;;5055279;28;20021;-52
2021/11/11 05:27:47;;;;;;;35.85;17.80;;;;;;;;;;5055355;28;20082;-52
2021/11/11 05:30:18;;;;;;;33.50;17.88;;;;;;;;;;5055082;28;20040;-52
2021/11/11 05:32:44;;;;;;;34.05;18.27;;;;;;;;;;5055317;28;20013;-51
2021/11/11 05:35:11;;;;;;;30.92;16.55;;;;;;;;;;5055413;28;20025;-52
2021/11/11 05:37:37;;;;;;;44.67;20.80;;;;;;;;;;5054086;28;20513;-51
2021/11/11 05:40:05;;;;;;;42.50;19.45;;;;;;;;;;5054977;28;20039;-52
2021/11/11 05:42:31;;;;;;;49.78;26.60;;;;;;;;;;5055055;28;20457;-52
2021/11/11 05:44:57;;;;;;;38.97;18.45;;;;;;;;;;5054904;28;20496;-52
2021/11/11 05:47:23;;;;;;;44.63;21.80;;;;;;;;;;5054962;28;20418;-51
2021/11/11 05:49:49;;;;;;;38.63;21.17;;;;;;;;;;5054828;28;20048;-52
2021/11/11 05:52:15;;;;;;;32.60;18.60;;;;;;;;;;5055056;28;20037;-51
2021/11/11 05:54:42;;;;;;;32.22;17.77;;;;;;;;;;5055119;28;20040;-53
2021/11/11 05:57:09;;;;;;;35.83;17.63;;;;;;;;;;5054995;28;20110;-52
2021/11/11 05:59:41;;;;;;;25.60;15.38;;;;;;;;;;5054879;28;20025;-52
2021/11/11 06:02:08;;;;;;;30.95;18.33;;;;;;;;;;5054943;28;20021;-52
2021/11/11 06:04:35;;;;;;;27.63;15.77;;;;;;;;;;5054597;28;20039;-51
2021/11/11 06:07:01;;;;;;;34.28;18.83;;;;;;;;;;5054584;28;20601;-52
2021/11/11 06:09:27;;;;;;;31.02;16.40;;;;;;;;;;5054511;28;20138;-52
2021/11/11 06:11:55;;;;;;;33.58;17.60;;;;;;;;;;5054859;28;20029;-52
2021/11/11 06:14:21;;;;;;;36.08;17.42;;;;;;;;;;5054327;28;20067;-52
2021/11/11 06:16:48;;;;;;;33.88;17.42;;;;;;;;;;5054582;28;20108;-52
2021/11/11 06:19:14;;;;;;;36.03;18.40;;;;;;;;;;5054450;28;20028;-52
2021/11/11 06:21:41;;;;;;;41.83;19.88;;;;;;;;;;5054411;28;20456;-52
2021/11/11 06:24:07;;;;;;;35.38;18.67;;;;;;;;;;5054070;28;20029;-54
2021/11/11 06:26:34;;;;;;;36.03;20.77;;;;;;;;;;5054093;28;20403;-54
2021/11/11 06:29:02;;;;;;;37.67;20.23;;;;;;;;;;5054187;28;20079;-54
2021/11/11 06:31:29;;;;;;;30.92;17.85;;;;;;;;;;5054353;28;20028;-54
2021/11/11 06:33:55;;;;;;;27.15;15.73;;;;;;;;;;5053635;28;20095;-54
2021/11/11 06:36:24;;;;;;;29.63;16.05;;;;;;;;;;5053969;28;20021;-55
2021/11/11 06:38:50;;;;;;;29.23;15.13;;;;;;;;;;5054240;28;20025;-53
2021/11/11 06:41:16;;;;;;;25.05;14.85;;;;;;;;;;5053790;28;20431;-52
2021/11/11 06:43:43;;;;;;;27.08;15.60;;;;;;;;;;5053971;28;20423;-52
2021/11/11 06:46:10;;;;;;;25.95;16.73;;;;;;;;;;5053731;28;20043;-51
2021/11/11 06:48:36;;;;;;;26.92;15.88;;;;;;;;;;5053785;28;20053;-53
2021/11/11 06:51:02;;;;;;;38.53;21.10;;;;;;;;;;5053567;28;20052;-53
2021/11/11 06:53:29;;;;;;;50.47;23.90;;;;;;;;;;5053728;28;20107;-52
2021/11/11 06:55:55;;;;;;;61.97;30.85;;;;;;;;;;5053456;28;20025;-52
2021/11/11 06:58:23;;;;;;;53.40;23.52;;;;;;;;;;5054308;28;20055;-52
2021/11/11 07:00:53;;;;;;;42.10;22.35;;;;;;;;;;5053386;28;20025;-52
2021/11/11 07:03:19;;;;;;;35.80;19.58;;;;;;;;;;5052222;28;20384;-52
2021/11/11 07:05:46;;;;;;;29.90;17.70;;;;;;;;;;5053378;28;20031;-52
2021/11/11 07:08:13;;;;;;;28.75;16.73;;;;;;;;;;5053332;28;20446;-52
2021/11/11 07:10:39;;;;;;;29.60;16.42;;;;;;;;;;5053185;28;20059;-53
2021/11/11 07:13:06;;;;;;;29.60;16.75;;;;;;;;;;5052180;28;20017;-52
2021/11/11 07:15:32;;;;;;;21.67;14.30;;;;;;;;;;5053761;28;20108;-53
2021/11/11 07:17:58;;;;;;;24.88;15.52;;;;;;;;;;5053374;28;20428;-53
2021/11/11 07:20:25;;;;;;;25.90;16.08;;;;;;;;;;5053191;28;20102;-52
2021/11/11 07:22:54;;;;;;;22.15;13.98;;;;;;;;;;5052993;28;20484;-53
2021/11/11 07:25:20;;;;;;;24.13;15.82;;;;;;;;;;5053224;28;20029;-54
2021/11/11 07:27:49;;;;;;;26.08;17.73;;;;;;;;;;5051532;28;20045;-54
2021/11/11 07:30:16;;;;;;;24.20;15.32;;;;;;;;;;5053007;28;20044;-53
2021/11/11 07:32:42;;;;;;;28.02;16.83;;;;;;;;;;5052965;28;20031;-54
2021/11/11 07:35:10;;;;;;;24.67;15.27;;;;;;;;;;5052906;28;20033;-54
2021/11/11 07:37:40;;;;;;;22.83;16.73;;;;;;;;;;5053337;28;20028;-54
2021/11/11 07:40:09;;;;;;;24.90;17.08;;;;;;;;;;5052932;28;20053;-54
2021/11/11 07:42:36;;;;;;;28.08;18.73;;;;;;;;;;5052424;28;20025;-55
2021/11/11 07:45:03;;;;;;;24.88;18.60;;;;;;;;;;5052409;28;20017;-54
2021/11/11 07:47:30;;;;;;;16.13;12.73;;;;;;;;;;5055682;28;20145;-54
2021/11/11 07:49:57;;;;;;;23.67;17.27;;;;;;;;;;5054065;28;20037;-54
2021/11/11 07:52:23;;;;;;;20.38;14.82;;;;;;;;;;5056995;28;20033;-54
2021/11/11 07:54:53;;;;;;;22.08;15.35;;;;;;;;;;5057177;28;20029;-54
2021/11/11 07:57:24;;;;;;;22.85;15.43;;;;;;;;;;5056902;28;20031;-55
2021/11/11 07:59:55;;;;;;;20.77;14.65;;;;;;;;;;5057143;28;20469;-54
2021/11/11 08:02:22;;;;;;;16.48;13.07;;;;;;;;;;5057070;28;20032;-54
2021/11/11 08:04:49;;;;;;;20.98;12.57;;;;;;;;;;5056933;28;20021;-54
2021/11/11 08:07:17;;;;;;;16.13;12.43;;;;;;;;;;5056955;28;20032;-54
2021/11/11 08:09:44;;;;;;;16.10;11.63;;;;;;;;;;5054668;28;20053;-54
2021/11/11 08:12:10;;;;;;;16.60;11.05;;;;;;;;;;5054443;28;20025;-54
2021/11/11 08:14:37;;;;;;;20.25;13.88;;;;;;;;;;5056484;28;20025;-54
2021/11/11 08:17:04;;;;;;;23.25;16.70;;;;;;;;;;5056524;28;20028;-54
2021/11/11 08:19:30;;;;;;;16.27;11.75;;;;;;;;;;5056352;28;20087;-54
2021/11/11 08:21:56;;;;;;;16.65;12.25;;;;;;;;;;5056421;28;20067;-54
2021/11/11 08:24:22;;;;;;;20.67;14.63;;;;;;;;;;5056767;28;20100;-53
2021/11/11 08:26:48;;;;;;;24.83;14.07;;;;;;;;;;5056006;28;20036;-54
2021/11/11 08:29:17;;;;;;;23.67;14.50;;;;;;;;;;5051991;28;20028;-54
2021/11/11 08:31:43;;;;;;;17.90;12.52;;;;;;;;;;5054989;28;20029;-53
2021/11/11 08:34:09;;;;;;;16.13;11.38;;;;;;;;;;5054878;28;20025;-52
2021/11/11 08:36:35;;;;;;;18.65;11.27;;;;;;;;;;5054962;28;20028;-51
2021/11/11 08:39:02;;;;;;;19.88;12.77;;;;;;;;;;5054828;28;20017;-53
2021/11/11 08:41:29;;;;;;;21.48;12.98;;;;;;;;;;5054674;28;20078;-54
2021/11/11 08:43:56;;;;;;;23.52;15.35;;;;;;;;;;5052267;28;20045;-51
2021/11/11 08:46:22;;;;;;;18.48;13.07;;;;;;;;;;5054605;28;20025;-53
2021/11/11 08:48:48;;;;;;;20.90;14.05;;;;;;;;;;5054689;28;20025;-53
2021/11/11 08:51:14;;;;;;;24.02;15.82;;;;;;;;;;5054521;28;20053;-54
2021/11/11 08:53:43;;;;;;;26.02;18.60;;;;;;;;;;5052099;28;20045;-53
2021/11/11 08:56:09;;;;;;;15.43;11.88;;;;;;;;;;5028201;28;20040;-53
2021/11/11 08:58:38;;;;;;;33.40;24.95;;;;;;;;;;5027591;28;20370;-54
2021/11/11 09:01:06;;;;;;;16.63;12.82;;;;;;;;;;5028322;28;20661;-52
2021/11/11 09:03:35;;;;;;;13.82;11.43;;;;;;;;;;5027506;28;20025;-54
2021/11/11 09:06:02;;;;;;;24.98;17.90;;;;;;;;;;5028035;28;20516;-55
2021/11/11 09:08:29;;;;;;;18.30;12.77;;;;;;;;;;5027675;28;20511;-53
2021/11/11 09:10:56;;;;;;;17.00;13.05;;;;;;;;;;5027715;28;20500;-53
2021/11/11 09:13:22;;;;;;;18.80;13.00;;;;;;;;;;5027586;28;21345;-54
2021/11/11 09:15:48;;;;;;;22.42;14.32;;;;;;;;;;5027920;28;20366;-54
2021/11/11 09:18:17;;;;;;;20.23;14.70;;;;;;;;;;5027813;28;20021;-53
2021/11/11 09:20:44;;;;;;;22.35;16.42;;;;;;;;;;5051080;28;20087;-54
2021/11/11 09:23:11;;;;;;;21.33;14.52;;;;;;;;;;5055367;28;20039;-54
2021/11/11 09:25:37;;;;;;;18.27;13.02;;;;;;;;;;5055177;28;20025;-53
2021/11/11 09:28:04;;;;;;;13.95;12.05;;;;;;;;;;5054996;28;20045;-54
2021/11/11 09:30:35;;;;;;;15.73;10.95;;;;;;;;;;5054929;28;20029;-55
2021/11/11 09:33:02;;;;;;;16.45;9.95;;;;;;;;;;5054980;28;20071;-52
2021/11/11 09:35:28;;;;;;;15.40;11.10;;;;;;;;;;5054923;28;20021;-53
2021/11/11 09:37:54;;;;;;;19.45;10.43;;;;;;;;;;5054880;28;20017;-52
2021/11/11 09:40:22;;;;;;;17.95;10.70;;;;;;;;;;5054840;28;20032;-51
2021/11/11 09:42:48;;;;;;;24.20;13.93;;;;;;;;;;5055097;28;20384;-54
2021/11/11 09:45:18;;;;;;;15.13;10.13;;;;;;;;;;5055024;28;20082;-53
2021/11/11 09:47:45;;;;;;;18.38;13.20;;;;;;;;;;5054825;28;20017;-54
2021/11/11 09:50:12;;;;;;;16.40;10.60;;;;;;;;;;5053428;28;20041;-52
2021/11/11 09:52:41;;;;;;;18.73;11.60;;;;;;;;;;5054713;28;20032;-52
2021/11/11 10:00:42;;;;;;;24.85;15.68;;;;;;;;;;5054770;28;20165;-51
2021/11/11 10:03:08;;;;;;;17.83;12.20;;;;;;;;;;5054815;28;20017;-54
2021/11/11 10:05:35;;;;;;;18.90;12.75;;;;;;;;;;5054481;28;20035;-54
2021/11/11 10:08:08;;;;;;;30.77;17.85;;;;;;;;;;5054184;28;20473;-55
2021/11/11 10:10:43;;;;;;;32.28;14.40;;;;;;;;;;5053898;28;20069;-53
2021/11/11 10:13:10;;;;;;;35.80;19.83;;;;;;;;;;5054714;28;20029;-55
2021/11/11 10:15:56;;;;;;;16.27;10.90;;;;;;;;;;5054391;28;20025;-55
2021/11/11 10:18:41;;;;;;;25.88;14.85;;;;;;;;;;5054337;28;20043;-54
2021/11/11 10:21:37;;;;;;;15.30;10.10;;;;;;;;;;5054200;28;20104;-53
2021/11/11 10:24:25;;;;;;;17.98;11.52;;;;;;;;;;5050099;28;20098;-53
2021/11/11 10:26:58;;;;;;;26.63;15.40;;;;;;;;;;5054309;28;20033;-53
2021/11/11 10:29:44;;;;;;;22.17;12.52;;;;;;;;;;5054011;28;20064;-53
2021/11/11 10:32:13;;;;;;;19.40;10.98;;;;;;;;;;5047107;28;20037;-53
2021/11/11 10:34:45;;;;;;;28.38;15.95;;;;;;;;;;5054068;28;20021;-52
2021/11/11 10:37:12;;;;;;;25.55;13.20;;;;;;;;;;5054433;28;20550;-52
2021/11/11 10:39:42;;;;;;;15.85;10.73;;;;;;;;;;5053853;28;20033;-53
2021/11/11 10:42:19;;;;;;;22.20;12.82;;;;;;;;;;5053977;28;20028;-52
2021/11/11 10:44:48;;;;;;;21.65;13.68;;;;;;;;;;5053859;28;20392;-53
2021/11/11 10:47:19;;;;;;;22.00;13.80;;;;;;;;;;5053380;28;20150;-53
2021/11/11 10:49:47;;;;;;;16.75;10.95;;;;;;;;;;5050702;28;20021;-52
2021/11/11 10:52:26;;;;;;;22.55;12.20;;;;;;;;;;5053269;28;20531;-52
2021/11/11 10:55:15;;;;;;;35.58;21.13;;;;;;;;;;5052099;28;20025;-52
2021/11/11 10:57:44;;;;;;;26.55;15.35;;;;;;;;;;5011167;28;20034;-55
2021/11/11 11:00:14;;;;;;;42.40;23.77;;;;;;;;;;5011143;28;20045;-53
2021/11/11 11:02:49;;;;;;;27.88;17.33;;;;;;;;;;4994946;28;20034;-56
2021/11/11 11:05:21;;;;;;;17.98;10.98;;;;;;;;;;5011486;28;20022;-56
2021/11/11 11:07:51;;;;;;;25.15;13.60;;;;;;;;;;5010913;28;20108;-53
2021/11/11 11:10:17;;;;;;;19.10;12.57;;;;;;;;;;5008476;28;20044;-54
2021/11/11 11:12:44;;;;;;;21.92;12.13;;;;;;;;;;5010963;28;20018;-55
2021/11/11 11:15:33;;;;;;;17.98;10.38;;;;;;;;;;5011265;28;20617;-56
2021/11/11 11:18:02;;;;;;;26.77;16.83;;;;;;;;;;5008767;28;20018;-53
2021/11/11 11:20:28;;;;;;;27.27;16.23;;;;;;;;;;5010729;28;20025;-54
2021/11/11 11:23:12;;;;;;;17.33;10.70;;;;;;;;;;5011024;28;20042;-56
2021/11/11 11:25:39;;;;;;;25.42;14.73;;;;;;;;;;5008721;28;20119;-56
2021/11/11 11:28:25;;;;;;;16.75;11.13;;;;;;;;;;5011007;28;20165;-55
2021/11/11 11:30:53;;;;;;;24.40;13.10;;;;;;;;;;5010059;28;20034;-56
2021/11/11 11:33:38;;;;;;;18.08;12.40;;;;;;;;;;5010945;28;20045;-56
2021/11/11 11:36:05;;;;;;;24.40;14.90;;;;;;;;;;5053107;28;20366;-53
2021/11/11 11:38:38;;;;;;;22.30;13.35;;;;;;;;;;5052728;28;20024;-54
2021/11/11 11:41:24;;;;;;;28.30;15.50;;;;;;;;;;5050438;28;20025;-53
2021/11/11 11:43:53;;;;;;;17.85;11.70;;;;;;;;;;5050864;28;20040;-52
2021/11/11 11:46:25;;;;;;;25.52;14.63;;;;;;;;;;5052346;28;20017;-52
2021/11/11 11:48:50;;;;;;;;;;;;;;;;;;5053089;28;20021;-53
2021/11/11 11:51:18;;;;;;;13.43;10.40;;;;;;;;;;5052221;28;20351;-54
2021/11/11 11:54:22;;;;;;;24.83;14.05;;;;;;;;;;5050386;28;20025;-53
2021/11/11 11:56:44;;;;;;;19.00;12.75;;;;;;;;;;5046074;28;20049;-55
2021/11/11 11:59:15;;;;;;;20.67;12.57;;;;;;;;;;5067851;28;20045;-55
2021/11/11 12:15:31;;;;;;;16.17;10.75;;;;;;;;;;5049756;28;20068;-53
2021/11/11 12:28:23;;;;;;;16.40;10.07;;;;;;;;;;5051009;28;20029;-55
2021/11/11 12:29:43;;;;;;;17.85;10.05;;;;;;;;;;5051281;28;20036;-53
2021/11/11 12:40:23;;;;;;;20.63;12.30;;;;;;;;;;5013213;28;20053;-53
2021/11/11 12:42:55;;;;;;;18.33;12.48;;;;;;;;;;4997155;28;20037;-53
2021/11/11 12:45:21;;;;;;;;;;;;;;;;;;5014032;28;20030;-53
2021/11/11 12:48:01;;;;;;;20.83;13.40;;;;;;;;;;5013864;28;19905;-53
2021/11/11 12:50:33;;;;;;;20.45;11.35;;;;;;;;;;5011269;28;20049;-52
2021/11/11 12:52:59;;;;;;;;;;;;;;;;;;5014093;28;20022;-55
2021/11/11 12:55:27;;;;;;;23.42;12.38;;;;;;;;;;5013580;28;19953;-54
2021/11/11 12:57:55;;;;;;;18.92;12.05;;;;;;;;;;5013463;28;20133;-53
2021/11/11 13:00:50;;;;;;;20.08;12.55;;;;;;;;;;5013945;28;20415;-53
2021/11/11 13:03:17;;;;;;;24.27;12.45;;;;;;;;;;4994317;28;20045;-54
2021/11/11 13:05:48;;;;;;;17.85;11.43;;;;;;;;;;4994216;28;20423;-52
2021/11/11 13:08:18;;;;;;;17.87;11.03;;;;;;;;;;4994145;28;20049;-52
2021/11/11 13:10:55;;;;;;;20.00;12.82;;;;;;;;;;4993503;28;20043;-52
2021/11/11 13:13:25;;;;;;;19.13;11.18;;;;;;;;;;4990488;28;20537;-52
2021/11/11 13:15:53;;;;;;;21.27;12.38;;;;;;;;;;4993445;28;20031;-52
2021/11/11 13:18:45;;;;;;;20.00;13.15;;;;;;;;;;5010942;28;20059;-52
2021/11/11 13:21:25;;;;;;;27.00;16.55;;;;;;;;;;5011794;28;20483;-52
2021/11/11 13:24:10;;;;;;;27.38;15.30;;;;;;;;;;5013785;28;20034;-52
2021/11/11 14:00:41;;;;;;;25.50;13.48;;;;;;;;;;5030150;28;20168;-52
2021/11/11 14:03:55;;;;;;;22.58;13.60;;;;;;;;;;5029536;28;20029;-53
2021/11/11 15:16:13;;;;;;;76.28;41.40;;;;;;;;;;5011794;28;20029;-53
2021/11/11 15:57:16;;;;;;;106.55;57.05;;;;;;;;;;5033296;28;20037;-55
2021/11/11 16:02:37;;;;;;;144.27;77.15;;;;;;;;;;5011121;28;20038;-53
2021/11/11 16:22:06;;;;;;;118.88;61.08;;;;;;;;;;4995242;28;20038;-53
2021/11/11 16:27:12;;;;;;;97.78;50.80;;;;;;;;;;4995062;28;20038;-54
2021/11/11 16:29:43;;;;;;;96.47;52.17;;;;;;;;;;4995028;28;20029;-53
2021/11/11 16:32:12;;;;;;;101.03;56.28;;;;;;;;;;4994783;28;20093;-52
2021/11/11 16:34:38;;;;;;;109.10;55.60;;;;;;;;;;4995140;28;20038;-53
2021/11/11 16:37:06;;;;;;;115.70;60.42;;;;;;;;;;4994940;28;20038;-53
2021/11/11 16:39:33;;;;;;;118.90;60.78;;;;;;;;;;4994902;28;20034;-53
2021/11/11 16:41:59;;;;;;;130.80;65.47;;;;;;;;;;4979004;28;20042;-52
2021/11/11 16:44:26;;;;;;;133.73;67.88;;;;;;;;;;4994700;28;20520;-55
2021/11/11 16:46:52;;;;;;;129.52;67.15;;;;;;;;;;5008241;28;20038;-54
2021/11/11 16:49:18;;;;;;;107.97;53.42;;;;;;;;;;5036211;28;20048;-55
2021/11/11 16:51:45;;;;;;;101.18;53.38;;;;;;;;;;5035856;28;20107;-54
2021/11/11 16:54:11;;;;;;;106.32;53.97;;;;;;;;;;5036199;28;20022;-54
2021/11/11 16:56:38;;;;;;;85.32;43.20;;;;;;;;;;5036064;28;20033;-54
2021/11/11 16:59:04;;;;;;;96.15;47.97;;;;;;;;;;5035940;28;20026;-54
2021/11/11 17:01:30;;;;;;;87.47;43.30;;;;;;;;;;5034664;28;20029;-53
2021/11/11 17:03:56;;;;;;;83.28;43.85;;;;;;;;;;5036345;28;20392;-54
2021/11/11 17:06:25;;;;;;;88.85;45.30;;;;;;;;;;5034269;28;20032;-54
2021/11/11 17:08:51;;;;;;;83.85;42.17;;;;;;;;;;5035781;28;20030;-54
2021/11/11 17:11:18;;;;;;;69.15;38.83;;;;;;;;;;5035645;28;20045;-55
2021/11/11 17:13:45;;;;;;;75.50;40.95;;;;;;;;;;5034386;28;20022;-54
2021/11/11 17:16:17;;;;;;;79.80;41.65;;;;;;;;;;5035541;28;20032;-54
2021/11/11 17:18:44;;;;;;;71.47;38.03;;;;;;;;;;5035333;28;20024;-55
2021/11/11 17:21:14;;;;;;;65.43;35.10;;;;;;;;;;5035618;28;20041;-54
2021/11/11 17:23:46;;;;;;;80.22;40.55;;;;;;;;;;5035581;28;20018;-54
2021/11/11 17:26:19;;;;;;;;;;;;;;;;;;5036024;28;20466;-54
2021/11/11 17:28:48;;;;;;;74.30;39.15;;;;;;;;;;5035518;28;20289;-54
2021/11/11 17:31:15;;;;;;;77.32;39.83;;;;;;;;;;5035344;28;20401;-54
2021/11/11 17:33:41;;;;;;;65.57;35.78;;;;;;;;;;5035284;28;20037;-54
2021/11/11 17:36:09;;;;;;;84.65;41.97;;;;;;;;;;5035472;28;20024;-52
2021/11/11 17:38:37;;;;;;;75.75;36.83;;;;;;;;;;5035355;28;20104;-54
2021/11/11 17:41:04;;;;;;;60.70;33.85;;;;;;;;;;5035147;28;20028;-55
2021/11/11 17:43:32;;;;;;;59.10;32.58;;;;;;;;;;5034885;28;20512;-54
2021/11/11 17:48:31;;;;;;;51.55;28.60;;;;;;;;;;5035042;28;20029;-55
2021/11/11 17:51:04;;;;;;;70.47;36.33;;;;;;;;;;5034789;28;20501;-54
2021/11/11 17:53:33;;;;;;;79.45;40.95;;;;;;;;;;5034894;28;20121;-53
2021/11/11 17:56:03;;;;;;;74.85;39.40;;;;;;;;;;5034943;28;20025;-54
2021/11/11 17:58:36;;;;;;;119.93;61.78;;;;;;;;;;5034825;28;20080;-54
2021/11/11 18:01:03;;;;;;;81.00;44.08;;;;;;;;;;5034976;28;20028;-54
2021/11/11 18:03:29;;;;;;;76.68;39.33;;;;;;;;;;5034902;28;20431;-54
2021/11/11 18:06:03;;;;;;;59.78;33.78;;;;;;;;;;5035059;28;20017;-52
2021/11/11 18:08:31;;;;;;;66.53;38.35;;;;;;;;;;5034756;28;20032;-53
2021/11/11 18:10:58;;;;;;;32.00;17.08;;;;;;;;;;5034583;28;20024;-54
2021/11/11 18:13:28;;;;;;;40.40;24.77;;;;;;;;;;5034570;28;20060;-52
2021/11/11 18:15:57;;;;;;;63.78;37.60;;;;;;;;;;5034656;28;20033;-52
2021/11/11 18:18:23;;;;;;;51.10;30.60;;;;;;;;;;5034518;28;20049;-54
2021/11/11 18:20:49;;;;;;;79.07;43.97;;;;;;;;;;5034642;28;20458;-52